Weather at Campo di Volo "Al Canale"

Public forecast

Using degrees Celsius for public forecast. Weather courtesy of forecast.io.

Closest aviation weather report (METAR) to Campo di Volo "Al Canale"

Closest report is Gioia Del Colle Air Base, 13.9 nm (25.7 km) W. Retrieved 2021/10/16 17:55 UTC (36 minutes ago):

LIBV 161755Z 30004KT 9999 OVC040 13/09 Q1015 RMK OVC VIS MIN 9999 WIND THR32 33005KT WIND THR14 32004KT BLU

Closest aviation forecast (TAF) to Campo di Volo "Al Canale"

Forecast is more than 12 hours old.

Closest forecast is Gioia Del Colle Air Base, 13.9 nm (25.7 km) W. Retrieved 2020/04/18 15:27 UTC (1 year ago):

TAF TAF COR LIBV 181705Z 1815/1903 18008KT CAVOK